sensor_id;sensor_type;location;lat;lon;timestamp;temperature;humidity
2721;DHT22;1368;49.484;11.112;2023-04-15T00:00:28;8.00;99.90
2721;DHT22;1368;49.484;11.112;2023-04-15T00:02:54;8.00;99.90
2721;DHT22;1368;49.484;11.112;2023-04-15T00:05:20;8.10;99.90
2721;DHT22;1368;49.484;11.112;2023-04-15T00:07:45;8.10;99.90
2721;DHT22;1368;49.484;11.112;2023-04-15T00:10:12;8.20;99.90
2721;DHT22;1368;49.484;11.112;2023-04-15T00:12:39;8.20;99.90
2721;DHT22;1368;49.484;11.112;2023-04-15T00:15:06;8.20;99.90
2721;DHT22;1368;49.484;11.112;2023-04-15T00:17:32;8.30;99.90
2721;DHT22;1368;49.484;11.112;2023-04-15T00:19:58;8.30;99.90
2721;DHT22;1368;49.484;11.112;2023-04-15T00:22:25;8.30;99.90
2721;DHT22;1368;49.484;11.112;2023-04-15T00:24:52;8.30;99.90
2721;DHT22;1368;49.484;11.112;2023-04-15T00:27:18;8.20;99.90
2721;DHT22;1368;49.484;11.112;2023-04-15T00:29:44;8.20;99.90
2721;DHT22;1368;49.484;11.112;2023-04-15T00:32:09;8.10;99.90
2721;DHT22;1368;49.484;11.112;2023-04-15T00:34:35;8.10;99.90
2721;DHT22;1368;49.484;11.112;2023-04-15T00:37:01;8.00;99.90
2721;DHT22;1368;49.484;11.112;2023-04-15T00:39:26;8.20;99.90
2721;DHT22;1368;49.484;11.112;2023-04-15T00:41:52;8.20;99.90
2721;DHT22;1368;49.484;11.112;2023-04-15T00:44:18;8.20;99.90
2721;DHT22;1368;49.484;11.112;2023-04-15T00:46:44;8.20;99.90
2721;DHT22;1368;49.484;11.112;2023-04-15T00:49:11;8.30;99.90
2721;DHT22;1368;49.484;11.112;2023-04-15T00:51:37;8.10;99.90
2721;DHT22;1368;49.484;11.112;2023-04-15T00:54:03;8.10;99.90
2721;DHT22;1368;49.484;11.112;2023-04-15T00:56:30;8.10;99.90
2721;DHT22;1368;49.484;11.112;2023-04-15T00:58:57;8.00;99.90
2721;DHT22;1368;49.484;11.112;2023-04-15T01:01:24;8.00;99.90
2721;DHT22;1368;49.484;11.112;2023-04-15T01:03:51;8.10;99.90
2721;DHT22;1368;49.484;11.112;2023-04-15T01:06:17;8.10;99.90
2721;DHT22;1368;49.484;11.112;2023-04-15T01:08:43;7.80;99.90
2721;DHT22;1368;49.484;11.112;2023-04-15T01:11:10;7.80;99.90
2721;DHT22;1368;49.484;11.112;2023-04-15T01:13:36;7.70;99.90
2721;DHT22;1368;49.484;11.112;2023-04-15T01:16:02;7.90;99.90
2721;DHT22;1368;49.484;11.112;2023-04-15T01:18:28;7.90;99.90
2721;DHT22;1368;49.484;11.112;2023-04-15T01:20:54;7.80;99.90
2721;DHT22;1368;49.484;11.112;2023-04-15T01:23:21;7.70;99.90
2721;DHT22;1368;49.484;11.112;2023-04-15T01:25:48;7.40;99.90
2721;DHT22;1368;49.484;11.112;2023-04-15T01:28:14;7.50;99.90
2721;DHT22;1368;49.484;11.112;2023-04-15T01:30:40;7.60;99.90
2721;DHT22;1368;49.484;11.112;2023-04-15T01:33:06;7.70;99.90
2721;DHT22;1368;49.484;11.112;2023-04-15T01:35:32;7.80;99.90
2721;DHT22;1368;49.484;11.112;2023-04-15T01:38:04;7.90;99.90
2721;DHT22;1368;49.484;11.112;2023-04-15T01:40:30;7.90;99.90
2721;DHT22;1368;49.484;11.112;2023-04-15T01:42:56;7.90;99.90
2721;DHT22;1368;49.484;11.112;2023-04-15T01:45:22;7.70;99.90
2721;DHT22;1368;49.484;11.112;2023-04-15T01:47:47;7.80;99.90
2721;DHT22;1368;49.484;11.112;2023-04-15T01:50:13;7.70;99.90
2721;DHT22;1368;49.484;11.112;2023-04-15T01:52:39;7.60;99.90
2721;DHT22;1368;49.484;11.112;2023-04-15T01:55:06;7.50;99.90
2721;DHT22;1368;49.484;11.112;2023-04-15T01:57:32;7.40;99.90
2721;DHT22;1368;49.484;11.112;2023-04-15T01:59:58;7.30;99.90
2721;DHT22;1368;49.484;11.112;2023-04-15T02:02:23;7.10;99.90
2721;DHT22;1368;49.484;11.112;2023-04-15T02:04:50;7.00;99.90
2721;DHT22;1368;49.484;11.112;2023-04-15T02:07:15;7.10;99.90
2721;DHT22;1368;49.484;11.112;2023-04-15T02:09:41;7.20;99.90
2721;DHT22;1368;49.484;11.112;2023-04-15T02:12:08;7.40;99.90
2721;DHT22;1368;49.484;11.112;2023-04-15T02:14:34;7.50;99.90
2721;DHT22;1368;49.484;11.112;2023-04-15T02:16:59;7.40;99.90
2721;DHT22;1368;49.484;11.112;2023-04-15T02:19:32;7.50;99.90
2721;DHT22;1368;49.484;11.112;2023-04-15T02:21:57;7.70;99.90
2721;DHT22;1368;49.484;11.112;2023-04-15T02:24:24;7.60;99.90
2721;DHT22;1368;49.484;11.112;2023-04-15T02:26:49;7.70;99.90
2721;DHT22;1368;49.484;11.112;2023-04-15T02:29:15;7.90;99.90
2721;DHT22;1368;49.484;11.112;2023-04-15T02:31:40;7.80;99.90
2721;DHT22;1368;49.484;11.112;2023-04-15T02:34:06;8.00;99.90
2721;DHT22;1368;49.484;11.112;2023-04-15T02:36:32;8.00;99.90
2721;DHT22;1368;49.484;11.112;2023-04-15T02:38:59;8.10;99.90
2721;DHT22;1368;49.484;11.112;2023-04-15T02:41:24;8.20;99.90
2721;DHT22;1368;49.484;11.112;2023-04-15T02:43:52;8.30;99.90
2721;DHT22;1368;49.484;11.112;2023-04-15T02:46:17;8.30;99.90
2721;DHT22;1368;49.484;11.112;2023-04-15T02:48:43;8.30;99.90
2721;DHT22;1368;49.484;11.112;2023-04-15T02:51:13;8.40;99.90
2721;DHT22;1368;49.484;11.112;2023-04-15T02:53:38;8.40;99.90
2721;DHT22;1368;49.484;11.112;2023-04-15T02:56:04;8.40;99.90
2721;DHT22;1368;49.484;11.112;2023-04-15T02:58:30;8.40;99.90
2721;DHT22;1368;49.484;11.112;2023-04-15T03:00:56;8.30;99.90
2721;DHT22;1368;49.484;11.112;2023-04-15T03:03:21;8.30;99.90
2721;DHT22;1368;49.484;11.112;2023-04-15T03:05:47;8.40;99.90
2721;DHT22;1368;49.484;11.112;2023-04-15T03:08:13;8.30;99.90
2721;DHT22;1368;49.484;11.112;2023-04-15T03:10:39;8.30;99.90
2721;DHT22;1368;49.484;11.112;2023-04-15T03:13:04;8.30;99.90
2721;DHT22;1368;49.484;11.112;2023-04-15T03:15:31;8.00;99.90
2721;DHT22;1368;49.484;11.112;2023-04-15T03:17:57;7.90;99.90
2721;DHT22;1368;49.484;11.112;2023-04-15T03:20:22;8.00;99.90
2721;DHT22;1368;49.484;11.112;2023-04-15T03:22:48;8.00;99.90
2721;DHT22;1368;49.484;11.112;2023-04-15T03:25:14;8.10;99.90
2721;DHT22;1368;49.484;11.112;2023-04-15T03:27:40;8.20;99.90
2721;DHT22;1368;49.484;11.112;2023-04-15T03:30:06;8.30;99.90
2721;DHT22;1368;49.484;11.112;2023-04-15T03:32:33;8.30;99.90
2721;DHT22;1368;49.484;11.112;2023-04-15T03:34:58;8.30;99.90
2721;DHT22;1368;49.484;11.112;2023-04-15T03:37:24;8.40;99.90
2721;DHT22;1368;49.484;11.112;2023-04-15T03:39:49;8.40;99.90
2721;DHT22;1368;49.484;11.112;2023-04-15T03:42:15;8.40;99.90
2721;DHT22;1368;49.484;11.112;2023-04-15T03:44:40;8.30;99.90
2721;DHT22;1368;49.484;11.112;2023-04-15T03:47:06;8.30;99.90
2721;DHT22;1368;49.484;11.112;2023-04-15T03:49:32;8.40;99.90
2721;DHT22;1368;49.484;11.112;2023-04-15T03:51:57;8.40;99.90
2721;DHT22;1368;49.484;11.112;2023-04-15T03:54:24;8.30;99.90
2721;DHT22;1368;49.484;11.112;2023-04-15T03:56:49;8.40;99.90
2721;DHT22;1368;49.484;11.112;2023-04-15T03:59:15;8.40;99.90
2721;DHT22;1368;49.484;11.112;2023-04-15T04:01:40;8.40;99.90
2721;DHT22;1368;49.484;11.112;2023-04-15T04:04:06;8.40;99.90
2721;DHT22;1368;49.484;11.112;2023-04-15T04:06:32;8.40;99.90
2721;DHT22;1368;49.484;11.112;2023-04-15T04:08:57;8.20;99.90
2721;DHT22;1368;49.484;11.112;2023-04-15T04:11:23;8.20;99.90
2721;DHT22;1368;49.484;11.112;2023-04-15T04:13:48;8.30;99.90
2721;DHT22;1368;49.484;11.112;2023-04-15T04:16:14;8.30;99.90
2721;DHT22;1368;49.484;11.112;2023-04-15T04:18:40;8.30;99.90
2721;DHT22;1368;49.484;11.112;2023-04-15T04:21:05;8.30;99.90
2721;DHT22;1368;49.484;11.112;2023-04-15T04:23:31;8.30;99.90
2721;DHT22;1368;49.484;11.112;2023-04-15T04:25:57;8.30;99.90
2721;DHT22;1368;49.484;11.112;2023-04-15T04:28:22;8.30;99.90
2721;DHT22;1368;49.484;11.112;2023-04-15T04:30:48;8.40;99.90
2721;DHT22;1368;49.484;11.112;2023-04-15T04:33:14;8.30;99.90
2721;DHT22;1368;49.484;11.112;2023-04-15T04:35:39;8.30;99.90
2721;DHT22;1368;49.484;11.112;2023-04-15T04:38:05;8.40;99.90
2721;DHT22;1368;49.484;11.112;2023-04-15T04:40:30;8.30;99.90
2721;DHT22;1368;49.484;11.112;2023-04-15T04:42:56;8.40;99.90
2721;DHT22;1368;49.484;11.112;2023-04-15T04:45:22;8.40;99.90
2721;DHT22;1368;49.484;11.112;2023-04-15T04:47:47;8.40;99.90
2721;DHT22;1368;49.484;11.112;2023-04-15T04:50:13;8.50;99.90
2721;DHT22;1368;49.484;11.112;2023-04-15T04:52:39;8.50;99.90
2721;DHT22;1368;49.484;11.112;2023-04-15T04:55:05;8.50;99.90
2721;DHT22;1368;49.484;11.112;2023-04-15T04:57:30;8.60;99.90
2721;DHT22;1368;49.484;11.112;2023-04-15T04:59:56;8.70;99.90
2721;DHT22;1368;49.484;11.112;2023-04-15T05:02:22;8.70;99.90
2721;DHT22;1368;49.484;11.112;2023-04-15T05:04:47;8.60;99.90
2721;DHT22;1368;49.484;11.112;2023-04-15T05:07:14;8.50;99.90
2721;DHT22;1368;49.484;11.112;2023-04-15T05:09:40;8.50;99.90
2721;DHT22;1368;49.484;11.112;2023-04-15T05:12:06;8.60;99.90
2721;DHT22;1368;49.484;11.112;2023-04-15T05:14:33;8.70;99.90
2721;DHT22;1368;49.484;11.112;2023-04-15T05:16:58;8.80;99.90
2721;DHT22;1368;49.484;11.112;2023-04-15T05:19:24;8.90;99.90
2721;DHT22;1368;49.484;11.112;2023-04-15T05:21:50;9.00;99.90
2721;DHT22;1368;49.484;11.112;2023-04-15T05:24:15;9.00;99.90
2721;DHT22;1368;49.484;11.112;2023-04-15T05:26:41;9.10;99.90
2721;DHT22;1368;49.484;11.112;2023-04-15T05:29:06;9.10;99.90
2721;DHT22;1368;49.484;11.112;2023-04-15T05:31:32;9.10;99.90
2721;DHT22;1368;49.484;11.112;2023-04-15T05:33:58;9.00;99.90
2721;DHT22;1368;49.484;11.112;2023-04-15T05:36:23;9.20;99.90
2721;DHT22;1368;49.484;11.112;2023-04-15T05:38:49;9.30;99.90
2721;DHT22;1368;49.484;11.112;2023-04-15T05:41:14;9.40;99.90
2721;DHT22;1368;49.484;11.112;2023-04-15T05:43:40;9.50;99.90
2721;DHT22;1368;49.484;11.112;2023-04-15T05:46:06;9.60;99.90
2721;DHT22;1368;49.484;11.112;2023-04-15T05:48:32;9.50;99.90
2721;DHT22;1368;49.484;11.112;2023-04-15T05:50:58;9.40;99.90
2721;DHT22;1368;49.484;11.112;2023-04-15T05:53:24;9.40;99.90
2721;DHT22;1368;49.484;11.112;2023-04-15T05:55:50;9.70;99.90
2721;DHT22;1368;49.484;11.112;2023-04-15T05:58:16;9.50;99.90
2721;DHT22;1368;49.484;11.112;2023-04-15T06:00:41;9.60;99.90
2721;DHT22;1368;49.484;11.112;2023-04-15T06:03:07;9.70;99.90
2721;DHT22;1368;49.484;11.112;2023-04-15T06:05:32;9.70;99.90
2721;DHT22;1368;49.484;11.112;2023-04-15T06:07:58;9.70;99.90
2721;DHT22;1368;49.484;11.112;2023-04-15T06:10:24;9.60;99.90
2721;DHT22;1368;49.484;11.112;2023-04-15T06:12:51;9.80;99.90
2721;DHT22;1368;49.484;11.112;2023-04-15T06:15:17;10.30;99.90
2721;DHT22;1368;49.484;11.112;2023-04-15T06:17:43;9.80;99.90
2721;DHT22;1368;49.484;11.112;2023-04-15T06:20:09;9.80;99.90
2721;DHT22;1368;49.484;11.112;2023-04-15T06:22:36;9.70;99.90
2721;DHT22;1368;49.484;11.112;2023-04-15T06:25:02;9.80;99.90
2721;DHT22;1368;49.484;11.112;2023-04-15T06:27:28;9.70;99.90
2721;DHT22;1368;49.484;11.112;2023-04-15T06:29:53;10.00;99.90
2721;DHT22;1368;49.484;11.112;2023-04-15T06:32:19;9.70;99.90
2721;DHT22;1368;49.484;11.112;2023-04-15T06:34:44;9.60;99.90
2721;DHT22;1368;49.484;11.112;2023-04-15T06:37:10;9.20;99.90
2721;DHT22;1368;49.484;11.112;2023-04-15T06:39:40;9.60;99.90
2721;DHT22;1368;49.484;11.112;2023-04-15T06:42:05;9.50;99.90
2721;DHT22;1368;49.484;11.112;2023-04-15T06:44:31;9.70;99.90
2721;DHT22;1368;49.484;11.112;2023-04-15T06:46:56;9.80;99.90
2721;DHT22;1368;49.484;11.112;2023-04-15T06:49:22;9.80;99.90
2721;DHT22;1368;49.484;11.112;2023-04-15T06:51:47;9.80;99.90
2721;DHT22;1368;49.484;11.112;2023-04-15T06:54:13;10.10;99.90
2721;DHT22;1368;49.484;11.112;2023-04-15T06:56:39;10.00;99.90
2721;DHT22;1368;49.484;11.112;2023-04-15T06:59:04;10.00;99.90
2721;DHT22;1368;49.484;11.112;2023-04-15T07:01:30;10.30;99.90
2721;DHT22;1368;49.484;11.112;2023-04-15T07:03:56;10.40;99.90
2721;DHT22;1368;49.484;11.112;2023-04-15T07:06:22;10.80;99.90
2721;DHT22;1368;49.484;11.112;2023-04-15T07:08:47;10.90;99.90
2721;DHT22;1368;49.484;11.112;2023-04-15T07:11:13;10.40;99.90
2721;DHT22;1368;49.484;11.112;2023-04-15T07:13:38;10.30;99.90
2721;DHT22;1368;49.484;11.112;2023-04-15T07:16:04;10.60;99.90
2721;DHT22;1368;49.484;11.112;2023-04-15T07:18:30;10.60;99.90
2721;DHT22;1368;49.484;11.112;2023-04-15T07:20:55;10.80;99.90
2721;DHT22;1368;49.484;11.112;2023-04-15T07:23:21;11.00;99.90
2721;DHT22;1368;49.484;11.112;2023-04-15T07:25:48;11.00;99.90
2721;DHT22;1368;49.484;11.112;2023-04-15T07:28:13;10.80;99.90
2721;DHT22;1368;49.484;11.112;2023-04-15T07:30:39;11.20;99.90
2721;DHT22;1368;49.484;11.112;2023-04-15T07:33:04;11.00;99.90
2721;DHT22;1368;49.484;11.112;2023-04-15T07:35:30;10.70;99.90
2721;DHT22;1368;49.484;11.112;2023-04-15T07:37:56;10.80;99.90
2721;DHT22;1368;49.484;11.112;2023-04-15T07:40:22;10.80;99.90
2721;DHT22;1368;49.484;11.112;2023-04-15T07:42:47;11.00;99.90
2721;DHT22;1368;49.484;11.112;2023-04-15T07:45:14;11.00;99.90
2721;DHT22;1368;49.484;11.112;2023-04-15T07:47:39;11.20;99.90
2721;DHT22;1368;49.484;11.112;2023-04-15T07:50:08;10.60;99.90
2721;DHT22;1368;49.484;11.112;2023-04-15T07:52:33;10.50;99.90
2721;DHT22;1368;49.484;11.112;2023-04-15T07:55:07;10.30;99.90
2721;DHT22;1368;49.484;11.112;2023-04-15T07:57:36;9.70;99.90
2721;DHT22;1368;49.484;11.112;2023-04-15T08:00:03;9.50;99.90
2721;DHT22;1368;49.484;11.112;2023-04-15T08:02:31;9.50;99.90
2721;DHT22;1368;49.484;11.112;2023-04-15T08:04:57;9.80;99.90
2721;DHT22;1368;49.484;11.112;2023-04-15T08:07:24;9.60;99.90
2721;DHT22;1368;49.484;11.112;2023-04-15T08:09:50;9.60;99.90
2721;DHT22;1368;49.484;11.112;2023-04-15T08:12:15;9.70;99.90
2721;DHT22;1368;49.484;11.112;2023-04-15T08:14:41;9.90;99.90
2721;DHT22;1368;49.484;11.112;2023-04-15T08:17:07;10.00;99.90
2721;DHT22;1368;49.484;11.112;2023-04-15T08:19:32;10.10;99.90
2721;DHT22;1368;49.484;11.112;2023-04-15T08:21:58;9.70;99.90
2721;DHT22;1368;49.484;11.112;2023-04-15T08:24:24;9.30;99.90
2721;DHT22;1368;49.484;11.112;2023-04-15T08:26:51;9.20;99.90
2721;DHT22;1368;49.484;11.112;2023-04-15T08:29:16;9.10;99.90
2721;DHT22;1368;49.484;11.112;2023-04-15T08:31:42;9.30;99.90
2721;DHT22;1368;49.484;11.112;2023-04-15T08:34:07;9.60;99.90
2721;DHT22;1368;49.484;11.112;2023-04-15T08:36:33;10.00;99.90
2721;DHT22;1368;49.484;11.112;2023-04-15T08:38:59;10.00;99.90
2721;DHT22;1368;49.484;11.112;2023-04-15T08:41:36;9.70;99.90
2721;DHT22;1368;49.484;11.112;2023-04-15T08:44:04;9.20;99.90
2721;DHT22;1368;49.484;11.112;2023-04-15T08:46:31;8.90;99.90
2721;DHT22;1368;49.484;11.112;2023-04-15T08:48:59;8.90;99.90
2721;DHT22;1368;49.484;11.112;2023-04-15T08:51:27;8.80;99.90
2721;DHT22;1368;49.484;11.112;2023-04-15T08:53:54;8.80;99.90
2721;DHT22;1368;49.484;11.112;2023-04-15T08:56:23;9.10;99.90
2721;DHT22;1368;49.484;11.112;2023-04-15T08:58:49;9.40;99.90
2721;DHT22;1368;49.484;11.112;2023-04-15T09:01:15;9.30;99.90
2721;DHT22;1368;49.484;11.112;2023-04-15T09:03:41;9.40;99.90
2721;DHT22;1368;49.484;11.112;2023-04-15T09:06:07;9.10;99.90
2721;DHT22;1368;49.484;11.112;2023-04-15T09:08:33;9.20;99.90
2721;DHT22;1368;49.484;11.112;2023-04-15T09:11:03;9.30;99.90
2721;DHT22;1368;49.484;11.112;2023-04-15T09:13:29;9.00;99.90
2721;DHT22;1368;49.484;11.112;2023-04-15T09:15:55;8.70;99.90
2721;DHT22;1368;49.484;11.112;2023-04-15T09:18:33;8.60;99.90
2721;DHT22;1368;49.484;11.112;2023-04-15T09:21:07;8.90;99.90
2721;DHT22;1368;49.484;11.112;2023-04-15T09:23:34;8.90;99.90
2721;DHT22;1368;49.484;11.112;2023-04-15T09:26:01;9.20;99.90
2721;DHT22;1368;49.484;11.112;2023-04-15T09:28:27;9.30;99.90
2721;DHT22;1368;49.484;11.112;2023-04-15T09:30:59;9.00;99.90
2721;DHT22;1368;49.484;11.112;2023-04-15T09:33:26;8.80;99.90
2721;DHT22;1368;49.484;11.112;2023-04-15T09:36:00;9.00;99.90
2721;DHT22;1368;49.484;11.112;2023-04-15T09:38:27;9.10;99.90
2721;DHT22;1368;49.484;11.112;2023-04-15T09:40:52;9.30;99.90
2721;DHT22;1368;49.484;11.112;2023-04-15T09:43:18;9.50;99.90
2721;DHT22;1368;49.484;11.112;2023-04-15T09:45:50;9.30;99.90
2721;DHT22;1368;49.484;11.112;2023-04-15T09:48:22;9.40;99.90
2721;DHT22;1368;49.484;11.112;2023-04-15T09:50:51;9.50;99.90
2721;DHT22;1368;49.484;11.112;2023-04-15T09:53:22;9.50;99.90
2721;DHT22;1368;49.484;11.112;2023-04-15T09:58:19;9.60;99.90
2721;DHT22;1368;49.484;11.112;2023-04-15T10:00:50;9.70;99.90
2721;DHT22;1368;49.484;11.112;2023-04-15T10:03:24;9.30;99.90
2721;DHT22;1368;49.484;11.112;2023-04-15T10:05:52;9.40;99.90
2721;DHT22;1368;49.484;11.112;2023-04-15T10:08:20;9.30;99.90
2721;DHT22;1368;49.484;11.112;2023-04-15T10:10:47;9.10;99.90
2721;DHT22;1368;49.484;11.112;2023-04-15T10:13:13;9.20;99.90
2721;DHT22;1368;49.484;11.112;2023-04-15T10:15:43;9.30;99.90
2721;DHT22;1368;49.484;11.112;2023-04-15T10:18:10;9.00;99.90
2721;DHT22;1368;49.484;11.112;2023-04-15T10:20:37;9.10;99.90
2721;DHT22;1368;49.484;11.112;2023-04-15T10:23:04;9.40;99.90
2721;DHT22;1368;49.484;11.112;2023-04-15T10:25:32;9.50;99.90
2721;DHT22;1368;49.484;11.112;2023-04-15T10:27:58;9.20;99.90
2721;DHT22;1368;49.484;11.112;2023-04-15T10:30:24;9.40;99.90
2721;DHT22;1368;49.484;11.112;2023-04-15T10:32:51;9.50;99.90
2721;DHT22;1368;49.484;11.112;2023-04-15T10:35:19;9.10;99.90
2721;DHT22;1368;49.484;11.112;2023-04-15T10:37:45;9.10;99.90
2721;DHT22;1368;49.484;11.112;2023-04-15T10:42:52;8.90;99.90
2721;DHT22;1368;49.484;11.112;2023-04-15T10:45:18;9.10;99.90
2721;DHT22;1368;49.484;11.112;2023-04-15T10:47:44;9.40;99.90
2721;DHT22;1368;49.484;11.112;2023-04-15T10:50:09;9.80;99.90
2721;DHT22;1368;49.484;11.112;2023-04-15T10:52:39;10.10;99.90
2721;DHT22;1368;49.484;11.112;2023-04-15T10:55:13;10.10;99.90
2721;DHT22;1368;49.484;11.112;2023-04-15T10:57:41;10.70;99.90
2721;DHT22;1368;49.484;11.112;2023-04-15T11:08:04;11.30;99.90
2721;DHT22;1368;49.484;11.112;2023-04-15T11:13:21;10.80;99.90
2721;DHT22;1368;49.484;11.112;2023-04-15T11:15:48;10.70;99.90
2721;DHT22;1368;49.484;11.112;2023-04-15T11:18:15;10.90;99.90
2721;DHT22;1368;49.484;11.112;2023-04-15T11:23:15;10.70;99.90
2721;DHT22;1368;49.484;11.112;2023-04-15T11:25:42;10.50;99.90
2721;DHT22;1368;49.484;11.112;2023-04-15T11:28:08;10.40;99.90
2721;DHT22;1368;49.484;11.112;2023-04-15T11:30:36;10.40;99.90
2721;DHT22;1368;49.484;11.112;2023-04-15T11:33:04;10.50;99.90
2721;DHT22;1368;49.484;11.112;2023-04-15T11:35:30;10.70;99.90
2721;DHT22;1368;49.484;11.112;2023-04-15T11:37:57;11.40;99.90
2721;DHT22;1368;49.484;11.112;2023-04-15T11:40:28;11.00;99.90
2721;DHT22;1368;49.484;11.112;2023-04-15T11:43:13;11.00;99.90
2721;DHT22;1368;49.484;11.112;2023-04-15T11:45:56;10.90;99.90
2721;DHT22;1368;49.484;11.112;2023-04-15T11:48:24;11.10;99.90
2721;DHT22;1368;49.484;11.112;2023-04-15T11:50:58;10.80;99.90
2721;DHT22;1368;49.484;11.112;2023-04-15T11:53:35;10.90;99.90
2721;DHT22;1368;49.484;11.112;2023-04-15T11:56:01;11.30;99.90
2721;DHT22;1368;49.484;11.112;2023-04-15T11:58:28;12.20;99.90
2721;DHT22;1368;49.484;11.112;2023-04-15T12:00:58;12.50;99.90
2721;DHT22;1368;49.484;11.112;2023-04-15T12:03:28;12.30;99.90
2721;DHT22;1368;49.484;11.112;2023-04-15T12:06:20;12.80;99.90
2721;DHT22;1368;49.484;11.112;2023-04-15T12:11:16;12.80;99.90
2721;DHT22;1368;49.484;11.112;2023-04-15T12:13:49;12.30;99.90
2721;DHT22;1368;49.484;11.112;2023-04-15T12:16:18;12.40;99.90
2721;DHT22;1368;49.484;11.112;2023-04-15T12:18:45;12.20;99.90
2721;DHT22;1368;49.484;11.112;2023-04-15T12:21:12;12.00;99.90
2721;DHT22;1368;49.484;11.112;2023-04-15T12:24:00;11.70;99.90
2721;DHT22;1368;49.484;11.112;2023-04-15T12:26:28;11.00;99.90
2721;DHT22;1368;49.484;11.112;2023-04-15T12:29:02;10.80;99.90
2721;DHT22;1368;49.484;11.112;2023-04-15T12:31:28;10.60;99.90
2721;DHT22;1368;49.484;11.112;2023-04-15T12:33:56;10.60;99.90
2721;DHT22;1368;49.484;11.112;2023-04-15T12:36:22;10.80;99.90
2721;DHT22;1368;49.484;11.112;2023-04-15T12:38:48;11.00;99.90
2721;DHT22;1368;49.484;11.112;2023-04-15T12:41:13;11.30;99.90
2721;DHT22;1368;49.484;11.112;2023-04-15T12:43:39;11.40;99.90
2721;DHT22;1368;49.484;11.112;2023-04-15T12:46:04;11.70;99.90
2721;DHT22;1368;49.484;11.112;2023-04-15T12:48:33;11.90;99.90
2721;DHT22;1368;49.484;11.112;2023-04-15T12:50:59;11.80;99.90
2721;DHT22;1368;49.484;11.112;2023-04-15T12:53:24;11.60;99.90
2721;DHT22;1368;49.484;11.112;2023-04-15T12:55:50;11.40;99.90
2721;DHT22;1368;49.484;11.112;2023-04-15T12:58:16;11.40;99.90
2721;DHT22;1368;49.484;11.112;2023-04-15T13:00:42;11.00;99.90
2721;DHT22;1368;49.484;11.112;2023-04-15T13:03:08;10.80;99.90
2721;DHT22;1368;49.484;11.112;2023-04-15T13:05:33;10.80;99.90
2721;DHT22;1368;49.484;11.112;2023-04-15T13:08:01;11.30;99.90
2721;DHT22;1368;49.484;11.112;2023-04-15T13:10:27;11.80;99.90
2721;DHT22;1368;49.484;11.112;2023-04-15T13:12:53;12.20;99.90
2721;DHT22;1368;49.484;11.112;2023-04-15T13:15:21;12.20;99.90
2721;DHT22;1368;49.484;11.112;2023-04-15T13:17:47;12.50;99.90
2721;DHT22;1368;49.484;11.112;2023-04-15T13:20:13;12.60;99.90
2721;DHT22;1368;49.484;11.112;2023-04-15T13:22:38;12.20;99.90
2721;DHT22;1368;49.484;11.112;2023-04-15T13:25:05;11.90;99.90
2721;DHT22;1368;49.484;11.112;2023-04-15T13:27:31;11.90;99.90
2721;DHT22;1368;49.484;11.112;2023-04-15T13:29:57;11.10;99.90
2721;DHT22;1368;49.484;11.112;2023-04-15T13:32:24;11.00;99.90
2721;DHT22;1368;49.484;11.112;2023-04-15T13:34:50;11.10;99.90
2721;DHT22;1368;49.484;11.112;2023-04-15T13:37:15;11.10;99.90
2721;DHT22;1368;49.484;11.112;2023-04-15T13:39:41;11.30;99.90
2721;DHT22;1368;49.484;11.112;2023-04-15T13:42:06;11.30;99.90
2721;DHT22;1368;49.484;11.112;2023-04-15T13:44:32;11.40;99.90
2721;DHT22;1368;49.484;11.112;2023-04-15T13:46:57;11.40;99.90
2721;DHT22;1368;49.484;11.112;2023-04-15T13:49:23;11.60;99.90
2721;DHT22;1368;49.484;11.112;2023-04-15T13:51:49;11.50;99.90
2721;DHT22;1368;49.484;11.112;2023-04-15T13:54:15;11.80;99.90
2721;DHT22;1368;49.484;11.112;2023-04-15T13:56:40;12.00;99.90
2721;DHT22;1368;49.484;11.112;2023-04-15T13:59:06;12.40;99.90
2721;DHT22;1368;49.484;11.112;2023-04-15T14:01:33;12.40;99.90
2721;DHT22;1368;49.484;11.112;2023-04-15T14:03:59;12.20;99.90
2721;DHT22;1368;49.484;11.112;2023-04-15T14:06:25;12.10;99.90
2721;DHT22;1368;49.484;11.112;2023-04-15T14:08:51;12.20;99.90
2721;DHT22;1368;49.484;11.112;2023-04-15T14:11:17;12.00;99.90
2721;DHT22;1368;49.484;11.112;2023-04-15T14:13:43;11.90;99.90
2721;DHT22;1368;49.484;11.112;2023-04-15T14:16:09;11.30;99.90
2721;DHT22;1368;49.484;11.112;2023-04-15T14:18:34;11.20;99.90
2721;DHT22;1368;49.484;11.112;2023-04-15T14:21:01;11.40;99.90
2721;DHT22;1368;49.484;11.112;2023-04-15T14:23:27;11.20;99.90
2721;DHT22;1368;49.484;11.112;2023-04-15T14:25:53;10.90;99.90
2721;DHT22;1368;49.484;11.112;2023-04-15T14:28:18;10.60;99.90
2721;DHT22;1368;49.484;11.112;2023-04-15T14:30:44;10.60;99.90
2721;DHT22;1368;49.484;11.112;2023-04-15T14:33:09;10.10;99.90
2721;DHT22;1368;49.484;11.112;2023-04-15T14:35:35;9.90;99.90
2721;DHT22;1368;49.484;11.112;2023-04-15T14:38:01;9.80;99.90
2721;DHT22;1368;49.484;11.112;2023-04-15T14:40:26;9.90;99.90
2721;DHT22;1368;49.484;11.112;2023-04-15T14:42:52;10.00;99.90
2721;DHT22;1368;49.484;11.112;2023-04-15T14:45:17;10.20;99.90
2721;DHT22;1368;49.484;11.112;2023-04-15T14:47:43;10.10;99.90
2721;DHT22;1368;49.484;11.112;2023-04-15T14:50:09;10.40;99.90
2721;DHT22;1368;49.484;11.112;2023-04-15T14:52:35;10.60;99.90
2721;DHT22;1368;49.484;11.112;2023-04-15T14:55:10;10.70;99.90
2721;DHT22;1368;49.484;11.112;2023-04-15T14:57:36;11.10;99.90
2721;DHT22;1368;49.484;11.112;2023-04-15T15:00:03;11.40;99.90
2721;DHT22;1368;49.484;11.112;2023-04-15T15:02:29;11.50;99.90
2721;DHT22;1368;49.484;11.112;2023-04-15T15:04:56;11.10;99.90
2721;DHT22;1368;49.484;11.112;2023-04-15T15:07:22;11.20;99.90
2721;DHT22;1368;49.484;11.112;2023-04-15T15:09:47;11.30;99.90
2721;DHT22;1368;49.484;11.112;2023-04-15T15:12:13;11.10;99.90
2721;DHT22;1368;49.484;11.112;2023-04-15T15:14:39;11.10;99.90
2721;DHT22;1368;49.484;11.112;2023-04-15T15:17:04;10.80;99.90
2721;DHT22;1368;49.484;11.112;2023-04-15T15:19:30;10.50;99.90
2721;DHT22;1368;49.484;11.112;2023-04-15T15:21:55;10.60;99.90
2721;DHT22;1368;49.484;11.112;2023-04-15T15:24:21;10.50;99.90
2721;DHT22;1368;49.484;11.112;2023-04-15T15:26:46;10.30;99.90
2721;DHT22;1368;49.484;11.112;2023-04-15T15:29:12;10.30;99.90
2721;DHT22;1368;49.484;11.112;2023-04-15T15:31:37;10.20;99.90
2721;DHT22;1368;49.484;11.112;2023-04-15T15:34:03;10.20;99.90
2721;DHT22;1368;49.484;11.112;2023-04-15T15:36:29;10.10;99.90
2721;DHT22;1368;49.484;11.112;2023-04-15T15:38:58;10.30;99.90
2721;DHT22;1368;49.484;11.112;2023-04-15T15:41:24;10.00;99.90
2721;DHT22;1368;49.484;11.112;2023-04-15T15:43:50;9.90;99.90
2721;DHT22;1368;49.484;11.112;2023-04-15T15:46:16;10.00;99.90
2721;DHT22;1368;49.484;11.112;2023-04-15T15:48:42;10.00;99.90
2721;DHT22;1368;49.484;11.112;2023-04-15T15:51:07;10.10;99.90
2721;DHT22;1368;49.484;11.112;2023-04-15T15:53:33;10.20;99.90
2721;DHT22;1368;49.484;11.112;2023-04-15T15:55:59;9.70;99.90
2721;DHT22;1368;49.484;11.112;2023-04-15T15:58:25;9.60;99.90
2721;DHT22;1368;49.484;11.112;2023-04-15T16:00:51;9.70;99.90
2721;DHT22;1368;49.484;11.112;2023-04-15T16:03:16;9.60;99.90
2721;DHT22;1368;49.484;11.112;2023-04-15T16:05:42;9.70;99.90
2721;DHT22;1368;49.484;11.112;2023-04-15T16:08:08;10.00;99.90
2721;DHT22;1368;49.484;11.112;2023-04-15T16:10:33;10.40;99.90